Orbital elements of FENGYUN 1C DEB
| Launched | 9 May 1999 |
| Flight ended | – |
| Launch site | Taiyuan Space Center, PRC |
| Owner | People's Republic of China |
| NORAD ID | 30418 |
| Date fetched |
Epoch osculation |
Inc. [°] |
Ecc. | RA asc node [hr] |
Arg Peri. [°] |
Mean anom [°] |
Mean motion [rev/day] |
Abs. mag |
| Date fetched |
Epoch osculation |
Inc. [°] |
Ecc. | RA asc node [hr] |
Arg Peri. [°] |
Mean anom [°] |
Mean motion [rev/day] |
Abs. mag |
| 2026 May 08 17:57 | 2026 May 04 23:04:48 | 98.8532 | 0.01061 | 20.3731 | 19.7951 | 133.7453 | 14.86640 | – |
| 2026 May 07 17:58 | 2026 May 04 23:04:48 | 98.8532 | 0.01061 | 20.3731 | 19.7951 | 133.7453 | 14.86640 | – |
| 2026 May 06 17:57 | 2026 May 04 23:04:48 | 98.8532 | 0.01061 | 20.3731 | 19.7951 | 133.7453 | 14.86640 | – |
| 2026 May 05 17:57 | 2026 May 04 23:04:48 | 98.8532 | 0.01061 | 20.3731 | 19.7951 | 133.7453 | 14.86640 | – |
| 2026 May 04 17:57 | 2026 Apr 30 10:25:34 | 98.8526 | 0.01064 | 20.0371 | 34.1861 | 133.7453 | 14.86640 | – |
| 2026 May 03 17:57 | 2026 Apr 30 10:25:34 | 98.8526 | 0.01064 | 20.0371 | 34.1861 | 133.7453 | 14.86640 | – |
| 2026 May 02 17:57 | 2026 Apr 30 10:25:34 | 98.8526 | 0.01064 | 20.0371 | 34.1861 | 133.7453 | 14.86640 | – |
| 2026 May 01 17:56 | 2026 Apr 30 10:25:34 | 98.8526 | 0.01064 | 20.0371 | 34.1861 | 133.7453 | 14.86640 | – |
| 2026 Apr 30 17:56 | 2026 Apr 30 10:25:34 | 98.8526 | 0.01064 | 20.0371 | 34.1861 | 133.7453 | 14.86640 | – |
| 2026 Apr 29 17:57 | 2026 Apr 24 10:38:44 | 98.8537 | 0.01068 | 19.5925 | 53.2581 | 133.7453 | 14.86640 | – |
| 2026 Apr 28 17:56 | 2026 Apr 24 10:38:44 | 98.8537 | 0.01068 | 19.5925 | 53.2581 | 133.7453 | 14.86640 | – |
| 2026 Apr 27 17:58 | 2026 Apr 24 10:38:44 | 98.8537 | 0.01068 | 19.5925 | 53.2581 | 133.7453 | 14.86640 | – |
| 2026 Apr 26 17:58 | 2026 Apr 24 10:38:44 | 98.8537 | 0.01068 | 19.5925 | 53.2581 | 133.7453 | 14.86640 | – |
| 2026 Apr 25 17:58 | 2026 Apr 24 10:38:44 | 98.8537 | 0.01068 | 19.5925 | 53.2581 | 133.7453 | 14.86640 | – |
| 2026 Apr 24 17:59 | 2026 Apr 24 10:38:44 | 98.8537 | 0.01068 | 19.5925 | 53.2581 | 133.7453 | 14.86640 | – |
| 2026 Apr 23 17:57 | 2026 Apr 18 18:44:50 | 98.8525 | 0.01071 | 19.1724 | 71.2022 | 133.7453 | 14.86640 | – |
| 2026 Apr 22 17:57 | 2026 Apr 18 18:44:50 | 98.8525 | 0.01071 | 19.1724 | 71.2022 | 133.7453 | 14.86640 | – |
| 2026 Apr 21 17:57 | 2026 Apr 18 18:44:50 | 98.8525 | 0.01071 | 19.1724 | 71.2022 | 133.7453 | 14.86640 | – |
| 2026 Apr 20 17:57 | 2026 Apr 18 18:44:50 | 98.8525 | 0.01071 | 19.1724 | 71.2022 | 133.7453 | 14.86640 | – |
| 2026 Apr 19 17:58 | 2026 Apr 18 18:44:50 | 98.8525 | 0.01071 | 19.1724 | 71.2022 | 133.7453 | 14.86640 | – |
| 2026 Apr 18 17:56 | 2026 Apr 12 22:50:59 | 98.8528 | 0.01073 | 18.7399 | 89.6393 | 133.7453 | 14.86640 | – |
| 2026 Apr 16 17:57 | 2026 Apr 12 22:50:59 | 98.8528 | 0.01073 | 18.7399 | 89.6393 | 133.7453 | 14.86640 | – |
| 2026 Apr 14 17:57 | 2026 Apr 12 22:50:59 | 98.8528 | 0.01073 | 18.7399 | 89.6393 | 133.7453 | 14.86640 | – |
| 2026 Apr 13 17:57 | 2026 Apr 12 22:50:59 | 98.8528 | 0.01073 | 18.7399 | 89.6393 | 133.7453 | 14.86640 | – |
| 2026 Apr 12 17:57 | 2026 Apr 07 23:15:13 | 98.8520 | 0.01073 | 18.3702 | 105.4240 | 133.7453 | 14.86640 | – |
| 2026 Apr 11 17:57 | 2026 Apr 07 23:15:13 | 98.8520 | 0.01073 | 18.3702 | 105.4240 | 133.7453 | 14.86640 | – |